createdAt,value
2022-09-12T00:00:26.056Z,101845.16
2022-09-12T00:02:53.441Z,101733.63
2022-09-12T00:05:22.466Z,101810.59
2022-09-12T00:07:51.998Z,101770.38
2022-09-12T00:10:20.890Z,101765.44
2022-09-12T00:12:48.401Z,101775.28
2022-09-12T00:15:17.022Z,101718.66
2022-09-12T00:17:46.941Z,101751.28
2022-09-12T00:20:14.614Z,101776.56
2022-09-12T00:22:44.775Z,101808.38
2022-09-12T00:25:13.014Z,101780.94
2022-09-12T00:27:39.840Z,101814.34
2022-09-12T00:30:08.691Z,101819.81
2022-09-12T00:32:40.560Z,101818.16
2022-09-12T00:35:08.059Z,101709.69
2022-09-12T00:37:35.549Z,101826.38
2022-09-12T00:40:07.237Z,101727.94
2022-09-12T00:42:34.114Z,101804.06
2022-09-12T00:45:03.679Z,101802.16
2022-09-12T00:47:32.238Z,101606.19
2022-09-12T00:50:19.616Z,101796.72
2022-09-12T00:52:53.442Z,101689.88
2022-09-12T00:55:26.788Z,101658.06
2022-09-12T00:57:57.294Z,101627.38
2022-09-12T01:00:31.119Z,101679.81
2022-09-12T01:03:02.655Z,101619.22
2022-09-12T01:05:33.064Z,101785.59
2022-09-12T01:08:12.777Z,101605.06
2022-09-12T01:10:44.798Z,101635.53
2022-09-12T01:13:14.863Z,101779.34
2022-09-12T01:15:44.719Z,101745.31
2022-09-12T01:18:21.142Z,101771.44
2022-09-12T01:21:14.794Z,101723.06
2022-09-12T01:24:22.736Z,101606.72
2022-09-12T01:27:19.209Z,101614.06
2022-09-12T01:30:06.993Z,101766.06
2022-09-12T01:32:47.504Z,101764.97
2022-09-12T01:35:23.350Z,101723.63
2022-09-12T01:38:03.306Z,101703.25
2022-09-12T01:40:35.248Z,101755.72
2022-09-12T01:43:18.405Z,101661.94
2022-09-12T01:45:54.933Z,101694.56
2022-09-12T01:48:28.006Z,101771.78
2022-09-12T01:51:10.079Z,101740.78
2022-09-12T01:53:42.024Z,101683.41
2022-09-12T01:56:15.724Z,101633.41
2022-09-12T01:58:47.797Z,101673.91
2022-09-12T02:01:23.068Z,101693.75
2022-09-12T02:03:59.759Z,101540.44
2022-09-12T02:06:41.266Z,101615.94
2022-09-12T02:09:16.744Z,101572.22
2022-09-12T02:11:45.067Z,101741.59
2022-09-12T02:14:18.801Z,101729.06
2022-09-12T02:16:54.023Z,101708.97
2022-09-12T02:19:27.122Z,101532.56
2022-09-12T02:21:57.648Z,101658.38
2022-09-12T02:24:28.886Z,101573.03
2022-09-12T02:27:14.786Z,101669.00
2022-09-12T02:29:47.651Z,101563.53
2022-09-12T02:32:24.964Z,101664.38
2022-09-12T02:35:12.864Z,101722.56
2022-09-12T02:37:58.242Z,101739.41
2022-09-12T02:40:25.818Z,101594.25
2022-09-12T02:42:56.248Z,101613.78
2022-09-12T02:45:23.592Z,101639.94
2022-09-12T02:47:57.445Z,101623.59
2022-09-12T02:50:27.001Z,101549.13
2022-09-12T02:52:56.442Z,101548.06
2022-09-12T02:55:32.562Z,101712.78
2022-09-12T02:58:01.803Z,101549.41
2022-09-12T03:00:33.957Z,101537.44
2022-09-12T03:03:24.766Z,101702.47
2022-09-12T03:05:58.143Z,101517.88
2022-09-12T03:08:41.917Z,101535.28
2022-09-12T03:11:36.018Z,101702.72
2022-09-12T03:14:17.539Z,101702.47
2022-09-12T03:16:57.648Z,101598.56
2022-09-12T03:19:29.584Z,101538.00
2022-09-12T03:22:11.687Z,101654.03
2022-09-12T03:24:47.884Z,101630.66
2022-09-12T03:27:19.590Z,101707.91
2022-09-12T03:29:53.925Z,101594.78
2022-09-12T03:32:21.072Z,101515.44
2022-09-12T03:34:48.202Z,101549.13
2022-09-12T03:37:18.973Z,101632.28
2022-09-12T03:39:54.545Z,101714.44
2022-09-12T03:42:21.570Z,101629.59
2022-09-12T03:44:49.869Z,101601.59
2022-09-12T03:47:18.187Z,101589.34
2022-09-12T03:49:47.813Z,101635.81
2022-09-12T03:52:16.290Z,101560.53
2022-09-12T03:54:46.231Z,101507.31
2022-09-12T03:57:24.558Z,101481.47
2022-09-12T03:59:51.486Z,101624.69
2022-09-12T04:02:25.061Z,101670.91
2022-09-12T04:04:59.985Z,101542.06
2022-09-12T04:07:29.225Z,101545.84
2022-09-12T04:09:56.262Z,101560.81
2022-09-12T04:12:23.919Z,101572.22
2022-09-12T04:14:53.140Z,101603.19
2022-09-12T04:17:20.019Z,101641.00
2022-09-12T04:20:09.186Z,101671.69
2022-09-12T04:22:46.170Z,101617.34
2022-09-12T04:25:27.562Z,101637.69
2022-09-12T04:27:59.427Z,101513.81
2022-09-12T04:30:28.125Z,101686.34
2022-09-12T04:32:57.225Z,101667.03
2022-09-12T04:35:26.483Z,101571.94
2022-09-12T04:38:00.919Z,101511.06
2022-09-12T04:40:33.583Z,101595.28
2022-09-12T04:43:12.396Z,101528.44
2022-09-12T04:45:44.625Z,101605.59
2022-09-12T04:48:38.845Z,101700.72
2022-09-12T04:51:42.692Z,101502.34
2022-09-12T04:58:21.061Z,101685.16
2022-09-12T05:00:52.946Z,101491.19
2022-09-12T05:03:19.846Z,101686.47
2022-09-12T05:05:59.817Z,101499.03
2022-09-12T05:08:27.112Z,101619.88
2022-09-12T05:11:24.061Z,101630.97
2022-09-12T05:14:26.060Z,101575.06
2022-09-12T05:17:02.418Z,101511.81
2022-09-12T05:19:39.491Z,101484.91
2022-09-12T05:22:17.744Z,101497.94
2022-09-12T05:24:54.044Z,101683.09
2022-09-12T05:27:26.972Z,101589.16
2022-09-12T05:29:59.722Z,101505.53
2022-09-12T05:32:44.552Z,101490.53
2022-09-12T05:35:33.776Z,101468.56
2022-09-12T05:38:11.025Z,101612.09
2022-09-12T05:40:55.250Z,101629.75
2022-09-12T05:43:26.245Z,101586.53
2022-09-12T05:46:06.687Z,101601.44
2022-09-12T05:48:40.021Z,101576.66
2022-09-12T05:51:31.700Z,101581.28
2022-09-12T05:54:03.557Z,101657.34
2022-09-12T05:56:43.489Z,101580.19
2022-09-12T05:59:22.217Z,101501.00
2022-09-12T06:02:05.724Z,101663.78
2022-09-12T06:04:36.576Z,101599.72
2022-09-12T06:07:12.285Z,101586.97
2022-09-12T06:09:45.561Z,101660.22
2022-09-12T06:12:19.176Z,101681.47
2022-09-12T06:14:53.485Z,101584.50
2022-09-12T06:17:33.400Z,101666.41
2022-09-12T06:20:11.868Z,101662.03
2022-09-12T06:22:46.708Z,101660.06
2022-09-12T06:25:17.543Z,101485.91
2022-09-12T06:28:04.762Z,101601.63
2022-09-12T06:30:58.905Z,101622.03
2022-09-12T06:33:41.625Z,101602.19
2022-09-12T06:36:17.759Z,101592.84
2022-09-12T06:38:47.338Z,101570.84
2022-09-12T06:41:31.149Z,101614.22
2022-09-12T06:44:22.040Z,101598.75
2022-09-12T06:46:58.117Z,101496.31
2022-09-12T06:49:47.839Z,101584.03
2022-09-12T06:52:17.814Z,101577.56
2022-09-12T06:54:53.464Z,101605.22
2022-09-12T07:00:06.960Z,101661.94
2022-09-12T07:02:45.621Z,101572.84
2022-09-12T07:05:19.724Z,101603.97
2022-09-12T07:08:05.438Z,101465.13
2022-09-12T07:10:48.911Z,101539.66
2022-09-12T07:13:38.025Z,101473.22
2022-09-12T07:16:19.875Z,101539.34
2022-09-12T07:19:00.997Z,101652.66
2022-09-12T07:21:56.621Z,101507.50
2022-09-12T07:24:41.350Z,101630.88
2022-09-12T07:27:13.254Z,101593.59
2022-09-12T07:29:46.335Z,101647.47
2022-09-12T07:32:25.501Z,101650.69
2022-09-12T07:35:00.015Z,101489.06
2022-09-12T07:37:35.044Z,101553.66
2022-09-12T07:40:04.505Z,101589.06
2022-09-12T07:42:45.889Z,101644.94
2022-09-12T07:45:18.191Z,101486.00
2022-09-12T07:47:56.069Z,101650.28
2022-09-12T07:50:30.102Z,101532.06
2022-09-12T07:53:06.617Z,101647.69
2022-09-12T07:55:55.539Z,101656.13
2022-09-12T07:58:35.753Z,101457.13
2022-09-12T08:01:15.184Z,101517.91
2022-09-12T08:03:53.345Z,101653.78
2022-09-12T08:06:34.349Z,101641.06
2022-09-12T08:09:12.597Z,101630.78
2022-09-12T08:11:39.431Z,101595.28
2022-09-12T08:14:11.631Z,101653.25
2022-09-12T08:16:45.771Z,101594.78
2022-09-12T08:19:12.687Z,101648.97
2022-09-12T08:21:43.478Z,101579.56
2022-09-12T08:24:15.595Z,101481.56
2022-09-12T08:27:03.241Z,101492.47
2022-09-12T08:29:41.315Z,101650.69
2022-09-12T08:32:16.279Z,101575.88
2022-09-12T08:34:46.278Z,101634.38
2022-09-12T08:37:13.072Z,101529.63
2022-09-12T08:39:46.591Z,101608.22
2022-09-12T08:42:33.664Z,101653.34
2022-09-12T08:45:29.405Z,101650.41
2022-09-12T08:48:10.614Z,101645.50
2022-09-12T08:50:40.486Z,101615.47
2022-09-12T08:54:05.270Z,101627.25
2022-09-12T08:59:52.097Z,101649.44
2022-09-12T09:06:02.202Z,101591.19
2022-09-12T09:08:57.873Z,101502.56
2022-09-12T09:12:12.230Z,101629.22
2022-09-12T09:15:23.963Z,101538.91
2022-09-12T09:21:41.624Z,101482.69
2022-09-12T09:24:25.182Z,101470.88
2022-09-12T09:30:08.481Z,101613.25
2022-09-12T09:32:44.732Z,101545.25
2022-09-12T09:35:50.096Z,101511.94
2022-09-12T09:42:14.843Z,101547.16
2022-09-12T09:45:03.567Z,101563.72
2022-09-12T09:53:33.299Z,101587.75
2022-09-12T09:59:38.528Z,101497.13
2022-09-12T10:02:49.860Z,101446.25
2022-09-12T10:06:15.955Z,101580.44
2022-09-12T10:15:44.029Z,101479.28
2022-09-12T10:18:51.261Z,101539.03
2022-09-12T10:22:11.704Z,101429.44
2022-09-12T10:25:04.071Z,101449.75
2022-09-12T10:28:27.934Z,101514.13
2022-09-12T10:31:03.325Z,101526.38
2022-09-12T10:36:39.920Z,101416.59
2022-09-12T10:40:02.235Z,101417.16
2022-09-12T10:43:09.254Z,101496.69
2022-09-12T10:45:44.265Z,101529.75
2022-09-12T10:48:30.829Z,101411.38
2022-09-12T10:51:03.212Z,101426.53
2022-09-12T10:54:04.285Z,101404.69
2022-09-12T10:56:34.550Z,101467.00
2022-09-12T10:59:22.690Z,101484.06
2022-09-12T11:05:12.066Z,101489.66
2022-09-12T11:07:43.692Z,101405.69
2022-09-12T11:10:26.530Z,101485.75
2022-09-12T11:13:14.779Z,101496.13
2022-09-12T11:16:15.670Z,101483.03
2022-09-12T11:19:13.006Z,101492.50
2022-09-12T11:22:14.645Z,101455.00
2022-09-12T11:25:11.489Z,101390.72
2022-09-12T11:28:26.029Z,101392.66
2022-09-12T11:31:20.446Z,101406.59
2022-09-12T11:33:57.990Z,101378.19
2022-09-12T11:36:40.893Z,101428.59
2022-09-12T11:39:17.844Z,101423.44
2022-09-12T11:41:55.947Z,101454.13
2022-09-12T11:44:41.866Z,101436.59
2022-09-12T11:47:36.286Z,101353.41
2022-09-12T11:50:24.607Z,101373.84
2022-09-12T11:53:19.709Z,101445.38
2022-09-12T11:56:19.280Z,101459.97
2022-09-12T11:59:09.283Z,101408.94
2022-09-12T12:01:46.367Z,101409.38
2022-09-12T12:04:38.113Z,101424.22
2022-09-12T12:07:12.861Z,101473.56
2022-09-12T12:09:59.021Z,101406.25
2022-09-12T12:12:49.621Z,101448.56
2022-09-12T12:15:23.100Z,101478.41
2022-09-12T12:21:42.929Z,101484.09
2022-09-12T12:27:25.584Z,101461.53
2022-09-12T12:30:02.234Z,101373.13
2022-09-12T12:32:29.197Z,101345.34
2022-09-12T12:35:23.740Z,101439.28
2022-09-12T12:38:21.947Z,101444.91
2022-09-12T12:44:47.710Z,101345.38
2022-09-12T12:47:26.196Z,101457.16
2022-09-12T12:50:13.632Z,101328.38
2022-09-12T12:53:06.905Z,101429.75
2022-09-12T12:55:55.971Z,101427.19
2022-09-12T12:58:40.425Z,101348.34
2022-09-12T13:01:20.610Z,101358.63
2022-09-12T13:03:56.033Z,101451.31
2022-09-12T13:06:35.984Z,101418.16
2022-09-12T13:09:06.037Z,101311.41
2022-09-12T13:11:38.368Z,101396.03
2022-09-12T13:14:08.614Z,101282.41
2022-09-12T13:16:40.004Z,101267.28
2022-09-12T13:19:18.173Z,101350.25
2022-09-12T13:22:03.110Z,101423.41
2022-09-12T13:24:29.897Z,101318.13
2022-09-12T13:27:01.665Z,101258.22
2022-09-12T13:29:30.943Z,101270.13
2022-09-12T13:31:59.438Z,101383.31
2022-09-12T13:34:32.148Z,101348.50
2022-09-12T13:37:31.323Z,101372.50
2022-09-12T13:40:16.415Z,101294.91
2022-09-12T13:43:05.486Z,101356.34
2022-09-12T13:45:37.611Z,101258.53
2022-09-12T13:48:05.446Z,101387.59
2022-09-12T13:50:43.946Z,101312.34
2022-09-12T13:53:20.750Z,101370.53
2022-09-12T13:55:52.878Z,101327.88
2022-09-12T13:58:26.478Z,101364.31
2022-09-12T14:01:10.176Z,101247.13
2022-09-12T14:03:54.740Z,101371.22
2022-09-12T14:06:28.616Z,101346.41
2022-09-12T14:08:56.098Z,101342.63
2022-09-12T14:11:31.129Z,101343.59
2022-09-12T14:14:16.870Z,101188.38
2022-09-12T14:16:47.185Z,101214.34
2022-09-12T14:19:28.063Z,101201.41
2022-09-12T14:22:04.286Z,101263.03
2022-09-12T14:24:32.223Z,101217.88
2022-09-12T14:27:09.256Z,101190.75
2022-09-12T14:29:43.258Z,101319.97
2022-09-12T14:32:24.703Z,101224.22
2022-09-12T14:35:19.559Z,101284.34
2022-09-12T14:37:53.547Z,101290.22
2022-09-12T14:40:34.364Z,101274.09
2022-09-12T14:43:03.309Z,101276.84
2022-09-12T14:45:36.168Z,101193.34
2022-09-12T14:48:18.688Z,101212.69
2022-09-12T14:50:55.045Z,101316.94
2022-09-12T14:53:37.511Z,101164.00
2022-09-12T14:56:16.380Z,101247.84
2022-09-12T14:58:43.371Z,101290.44
2022-09-12T15:01:29.558Z,101301.06
2022-09-12T15:03:58.943Z,101181.81
2022-09-12T15:06:29.523Z,101303.06
2022-09-12T15:09:02.549Z,101317.44
2022-09-12T15:11:36.080Z,101308.66
2022-09-12T15:14:12.649Z,101319.91
2022-09-12T15:16:43.625Z,101284.78
2022-09-12T15:19:12.504Z,101298.72
2022-09-12T15:21:42.388Z,101211.97
2022-09-12T15:24:09.481Z,101275.88
2022-09-12T15:26:42.391Z,101267.38
2022-09-12T15:29:13.801Z,101188.44
2022-09-12T15:31:40.772Z,101296.69
2022-09-12T15:34:12.361Z,101215.84
2022-09-12T15:36:46.752Z,101282.91
2022-09-12T15:39:27.536Z,101245.19
2022-09-12T15:41:59.247Z,101164.53
2022-09-12T15:44:28.825Z,101267.19
2022-09-12T15:46:57.784Z,101285.00
2022-09-12T15:49:29.033Z,101241.59
2022-09-12T15:52:05.062Z,101197.53
2022-09-12T15:54:35.305Z,101224.06
2022-09-12T15:57:08.186Z,101139.25
2022-09-12T15:59:41.359Z,101110.50
2022-09-12T16:02:09.793Z,101111.78
2022-09-12T16:04:42.626Z,101239.78
2022-09-12T16:07:13.523Z,101170.84
2022-09-12T16:09:41.872Z,101245.97
2022-09-12T16:12:10.173Z,101200.06
2022-09-12T16:14:39.804Z,101248.59
2022-09-12T16:17:06.708Z,101195.00
2022-09-12T16:19:41.748Z,101102.13
2022-09-12T16:22:11.276Z,101059.16
2022-09-12T16:24:51.728Z,101236.56
2022-09-12T16:27:20.796Z,101072.81
2022-09-12T16:29:57.382Z,101189.88
2022-09-12T16:32:32.254Z,101205.63
2022-09-12T16:35:00.043Z,101085.28
2022-09-12T16:37:40.049Z,101180.91
2022-09-12T16:40:15.228Z,101189.91
2022-09-12T16:45:25.777Z,101175.41
2022-09-12T16:47:55.772Z,101196.38
2022-09-12T16:50:22.518Z,101173.09
2022-09-12T16:52:56.267Z,101233.84
2022-09-12T16:55:23.046Z,101240.81
2022-09-12T16:57:53.176Z,101226.81
2022-09-12T17:00:22.043Z,101085.38
2022-09-12T17:02:52.506Z,101206.78
2022-09-12T17:05:19.245Z,101210.41
2022-09-12T17:07:46.513Z,101178.00
2022-09-12T17:10:19.952Z,101195.47
2022-09-12T17:12:46.985Z,101216.50
2022-09-12T17:15:17.307Z,101219.88
2022-09-12T17:17:44.317Z,101198.97
2022-09-12T17:20:11.620Z,101226.38
2022-09-12T17:22:39.174Z,101204.81
2022-09-12T17:25:17.761Z,101247.69
2022-09-12T17:27:46.431Z,101234.03
2022-09-12T17:30:13.751Z,101214.03
2022-09-12T17:32:41.174Z,101167.84
2022-09-12T17:35:09.755Z,101103.50
2022-09-12T17:37:37.014Z,101076.00
2022-09-12T17:40:06.034Z,101216.78
2022-09-12T17:42:33.126Z,101131.28
2022-09-12T17:45:18.309Z,101205.19
2022-09-12T17:47:50.282Z,101136.28
2022-09-12T17:50:31.752Z,101209.66
2022-09-12T17:53:01.004Z,101177.31
2022-09-12T17:55:30.011Z,101198.59
2022-09-12T17:58:01.878Z,101194.44
2022-09-12T18:00:33.059Z,101093.72
2022-09-12T18:03:03.498Z,101179.44
2022-09-12T18:05:30.559Z,101188.84
2022-09-12T18:07:57.620Z,101162.84
2022-09-12T18:10:27.542Z,101148.09
2022-09-12T18:13:33.380Z,101196.28
2022-09-12T18:16:05.293Z,101195.19
2022-09-12T18:18:33.120Z,101182.97
2022-09-12T18:21:12.504Z,101196.75
2022-09-12T18:23:42.616Z,101127.03
2022-09-12T18:26:11.194Z,101139.41
2022-09-12T18:28:46.369Z,101133.06
2022-09-12T18:31:21.863Z,101085.97
2022-09-12T18:33:54.718Z,101021.88
2022-09-12T18:36:32.307Z,101177.78
2022-09-12T18:39:03.073Z,101062.63
2022-09-12T18:41:33.033Z,101033.84
2022-09-12T18:44:10.527Z,101082.59
2022-09-12T18:46:52.489Z,101121.94
2022-09-12T18:49:32.326Z,101095.22
2022-09-12T18:52:00.560Z,101117.75
2022-09-12T18:54:30.342Z,101185.72
2022-09-12T18:57:11.236Z,101175.00
2022-09-12T18:59:38.142Z,100993.47
2022-09-12T19:02:07.536Z,101176.00
2022-09-12T19:04:40.379Z,101057.09
2022-09-12T19:07:18.234Z,101177.00
2022-09-12T19:09:46.822Z,101002.59
2022-09-12T19:12:13.684Z,101137.28
2022-09-12T19:14:42.013Z,101154.53
2022-09-12T19:17:10.207Z,101200.03
2022-09-12T19:19:40.654Z,101047.09
2022-09-12T19:22:07.463Z,101081.88
2022-09-12T19:24:34.247Z,101102.34
2022-09-12T19:27:01.147Z,101131.25
2022-09-12T19:29:30.280Z,101175.19
2022-09-12T19:31:57.221Z,101188.72
2022-09-12T19:34:28.466Z,101135.69
2022-09-12T19:36:57.994Z,101116.22
2022-09-12T19:39:25.052Z,101138.94
2022-09-12T19:41:51.809Z,101115.03
2022-09-12T19:44:18.684Z,101174.25
2022-09-12T19:46:45.454Z,101164.63
2022-09-12T19:49:12.745Z,101109.34
2022-09-12T19:51:44.224Z,101191.66
2022-09-12T19:54:14.084Z,101161.47
2022-09-12T19:56:41.021Z,100999.59
2022-09-12T19:59:07.849Z,101053.75
2022-09-12T20:01:34.883Z,101153.09
2022-09-12T20:04:08.104Z,101044.16
2022-09-12T20:06:38.481Z,101128.50
2022-09-12T20:09:09.577Z,101090.75
2022-09-12T20:11:50.449Z,101171.88
2022-09-12T20:14:17.319Z,101147.78
2022-09-12T20:16:44.291Z,101091.84
2022-09-12T20:19:11.328Z,101095.34
2022-09-12T20:21:41.133Z,101134.72
2022-09-12T20:24:12.876Z,101137.78
2022-09-12T20:26:40.378Z,101135.38
2022-09-12T20:29:08.332Z,101067.66
2022-09-12T20:31:36.269Z,101123.63
2022-09-12T20:34:06.799Z,101055.59
2022-09-12T20:36:35.123Z,101025.44
2022-09-12T20:39:05.378Z,101048.38
2022-09-12T20:41:35.102Z,101113.19
2022-09-12T20:44:02.298Z,101110.28
2022-09-12T20:46:29.610Z,101159.84
2022-09-12T20:48:58.757Z,101145.81
2022-09-12T20:51:28.535Z,101127.41
2022-09-12T20:53:57.379Z,101077.72
2022-09-12T20:56:25.461Z,101056.44
2022-09-12T20:58:56.607Z,101136.44
2022-09-12T21:01:24.967Z,101138.69
2022-09-12T21:03:57.969Z,101147.41
2022-09-12T21:06:25.610Z,101128.03
2022-09-12T21:08:57.188Z,101093.66
2022-09-12T21:11:24.438Z,101130.16
2022-09-12T21:13:53.206Z,101029.34
2022-09-12T21:16:21.806Z,101027.56
2022-09-12T21:18:54.278Z,101021.91
2022-09-12T21:21:24.574Z,101126.44
2022-09-12T21:23:51.481Z,101119.97
2022-09-12T21:26:18.864Z,101118.34
2022-09-12T21:28:45.846Z,101113.66
2022-09-12T21:31:14.359Z,101071.13
2022-09-12T21:33:44.214Z,101019.19
2022-09-12T21:36:16.224Z,101000.66
2022-09-12T21:38:43.279Z,101118.84
2022-09-12T21:41:12.556Z,101070.63
2022-09-12T21:43:39.862Z,101083.22
2022-09-12T21:46:08.924Z,101122.88
2022-09-12T21:48:40.618Z,101132.91
2022-09-12T21:51:07.340Z,101019.53
2022-09-12T21:53:34.029Z,101000.66
2022-09-12T21:56:04.824Z,101057.25
2022-09-12T21:58:31.681Z,101095.78
2022-09-12T22:01:04.120Z,101096.91
2022-09-12T22:03:31.236Z,101060.13
2022-09-12T22:06:00.631Z,101103.38
2022-09-12T22:08:30.708Z,101005.81
2022-09-12T22:11:00.903Z,101105.50
2022-09-12T22:13:28.354Z,101005.31
2022-09-12T22:15:57.082Z,101044.84
2022-09-12T22:18:24.292Z,100936.78
2022-09-12T22:21:01.842Z,101095.47
2022-09-12T22:23:29.066Z,101020.94
2022-09-12T22:25:59.172Z,101055.81
2022-09-12T22:28:26.289Z,101044.34
2022-09-12T22:30:55.140Z,101111.13
2022-09-12T22:33:25.227Z,100920.66
2022-09-12T22:35:52.019Z,101107.44
2022-09-12T22:38:24.719Z,100986.09
2022-09-12T22:40:51.802Z,101093.06
2022-09-12T22:43:18.622Z,101092.56
2022-09-12T23:00:22.083Z,100973.50
2022-09-12T23:02:50.552Z,101105.31
2022-09-12T23:05:17.447Z,101094.81
2022-09-12T23:07:46.729Z,101057.84
2022-09-12T23:10:13.855Z,101066.06
2022-09-12T23:12:40.825Z,101113.41
2022-09-12T23:15:12.977Z,101096.13
2022-09-12T23:17:44.357Z,101095.94
2022-09-12T23:20:19.991Z,101092.38
2022-09-12T23:22:49.410Z,101007.00
2022-09-12T23:25:16.687Z,101000.06
2022-09-12T23:27:43.689Z,101109.50
2022-09-12T23:30:12.393Z,101036.38
2022-09-12T23:32:39.123Z,101015.38
2022-09-12T23:35:08.087Z,101049.44
2022-09-12T23:37:34.949Z,101091.09
2022-09-12T23:40:08.197Z,101038.66
2022-09-12T23:42:37.427Z,101102.53
2022-09-12T23:45:04.575Z,100994.28
2022-09-12T23:47:32.946Z,101055.56
2022-09-12T23:50:00.020Z,101086.88
2022-09-12T23:52:26.878Z,100920.81
2022-09-12T23:54:53.819Z,100997.47
2022-09-12T23:57:22.748Z,101072.84
2022-09-12T23:59:52.015Z,100975.50
